Annada, Missouri
Current Conditions -  °F | °C
As of 10:15 AM on Thursday 18 Dec 2014 (Local Time) from KPPQ Reporting Station
Light Snow Light Snow  
Wind Chill: 23°   Ceiling: 800
Heat Index: 28°   Visibility: 5mi
Dew Point: 25°   Wind: 5mph
Humidity: 88%   Direction: 150°SSE
Pressure: 30.31"   Gusts: NA
Location:  39.26°N, 90.83°W
Report Text: KPPQ 181615Z AUTO 15004KT 5SM -SN OVC008 M02/M04 A3031 RMK AO2 T10231040
Loading
Personal Weather Stations






























Interactive Weather Map New forecast layout! Learn more

10-Day Weather Forecast

Advertisements
Track Severe Weather on mobile